sensor_id;sensor_type;location;lat;lon;timestamp;P1;durP1;ratioP1;P2;durP2;ratioP2
21681;SDS011;11002;48.256;10.084;2023-10-19T00:00:54;14.30;;;9.95;;
21681;SDS011;11002;48.256;10.084;2023-10-19T00:03:22;14.07;;;9.43;;
21681;SDS011;11002;48.256;10.084;2023-10-19T00:05:50;15.45;;;9.98;;
21681;SDS011;11002;48.256;10.084;2023-10-19T00:08:17;14.45;;;9.45;;
21681;SDS011;11002;48.256;10.084;2023-10-19T00:10:45;18.67;;;10.70;;
21681;SDS011;11002;48.256;10.084;2023-10-19T00:13:20;16.85;;;9.50;;
21681;SDS011;11002;48.256;10.084;2023-10-19T00:15:48;15.48;;;9.20;;
21681;SDS011;11002;48.256;10.084;2023-10-19T00:18:17;13.55;;;8.45;;
21681;SDS011;11002;48.256;10.084;2023-10-19T00:20:48;14.82;;;9.70;;
21681;SDS011;11002;48.256;10.084;2023-10-19T00:23:18;14.65;;;9.52;;
21681;SDS011;11002;48.256;10.084;2023-10-19T00:25:50;15.82;;;9.45;;
21681;SDS011;11002;48.256;10.084;2023-10-19T00:28:18;14.35;;;8.77;;
21681;SDS011;11002;48.256;10.084;2023-10-19T00:30:48;14.30;;;9.35;;
21681;SDS011;11002;48.256;10.084;2023-10-19T00:33:18;14.27;;;9.95;;
21681;SDS011;11002;48.256;10.084;2023-10-19T00:35:47;14.55;;;9.50;;
21681;SDS011;11002;48.256;10.084;2023-10-19T00:38:23;17.25;;;10.23;;
21681;SDS011;11002;48.256;10.084;2023-10-19T00:41:07;20.67;;;10.03;;
21681;SDS011;11002;48.256;10.084;2023-10-19T00:43:40;15.88;;;10.07;;
21681;SDS011;11002;48.256;10.084;2023-10-19T00:46:09;20.85;;;10.10;;
21681;SDS011;11002;48.256;10.084;2023-10-19T00:48:47;16.20;;;10.30;;
21681;SDS011;11002;48.256;10.084;2023-10-19T00:51:16;16.52;;;10.07;;
21681;SDS011;11002;48.256;10.084;2023-10-19T00:54:03;14.50;;;9.60;;
21681;SDS011;11002;48.256;10.084;2023-10-19T00:56:35;15.23;;;10.73;;
21681;SDS011;11002;48.256;10.084;2023-10-19T00:59:04;17.42;;;10.60;;
21681;SDS011;11002;48.256;10.084;2023-10-19T01:01:38;17.95;;;10.90;;
21681;SDS011;11002;48.256;10.084;2023-10-19T01:04:09;15.40;;;10.25;;
21681;SDS011;11002;48.256;10.084;2023-10-19T01:06:39;11.77;;;8.30;;
21681;SDS011;11002;48.256;10.084;2023-10-19T01:09:10;15.65;;;9.20;;
21681;SDS011;11002;48.256;10.084;2023-10-19T01:11:40;16.45;;;9.95;;
21681;SDS011;11002;48.256;10.084;2023-10-19T01:14:21;18.00;;;9.90;;
21681;SDS011;11002;48.256;10.084;2023-10-19T01:16:53;16.27;;;9.45;;
21681;SDS011;11002;48.256;10.084;2023-10-19T01:19:22;16.13;;;10.48;;
21681;SDS011;11002;48.256;10.084;2023-10-19T01:21:52;14.43;;;8.85;;
21681;SDS011;11002;48.256;10.084;2023-10-19T01:24:26;16.40;;;9.98;;
21681;SDS011;11002;48.256;10.084;2023-10-19T01:27:05;15.88;;;9.90;;
21681;SDS011;11002;48.256;10.084;2023-10-19T01:29:34;16.60;;;9.38;;
21681;SDS011;11002;48.256;10.084;2023-10-19T01:32:03;14.60;;;10.05;;
21681;SDS011;11002;48.256;10.084;2023-10-19T01:34:33;16.58;;;9.73;;
21681;SDS011;11002;48.256;10.084;2023-10-19T01:37:02;16.08;;;10.57;;
21681;SDS011;11002;48.256;10.084;2023-10-19T01:39:31;17.85;;;10.70;;
21681;SDS011;11002;48.256;10.084;2023-10-19T01:42:00;20.45;;;10.68;;
21681;SDS011;11002;48.256;10.084;2023-10-19T01:44:29;18.35;;;10.00;;
21681;SDS011;11002;48.256;10.084;2023-10-19T01:46:57;13.70;;;9.35;;
21681;SDS011;11002;48.256;10.084;2023-10-19T01:49:26;14.85;;;9.40;;
21681;SDS011;11002;48.256;10.084;2023-10-19T01:51:54;17.58;;;9.95;;
21681;SDS011;11002;48.256;10.084;2023-10-19T01:54:22;16.92;;;9.63;;
21681;SDS011;11002;48.256;10.084;2023-10-19T01:56:52;16.38;;;9.80;;
21681;SDS011;11002;48.256;10.084;2023-10-19T01:59:21;15.88;;;10.60;;
21681;SDS011;11002;48.256;10.084;2023-10-19T02:01:53;17.40;;;9.75;;
21681;SDS011;11002;48.256;10.084;2023-10-19T02:04:20;14.18;;;9.10;;
21681;SDS011;11002;48.256;10.084;2023-10-19T02:06:48;16.80;;;9.88;;
21681;SDS011;11002;48.256;10.084;2023-10-19T02:09:17;12.55;;;8.88;;
21681;SDS011;11002;48.256;10.084;2023-10-19T02:11:48;14.38;;;9.25;;
21681;SDS011;11002;48.256;10.084;2023-10-19T02:14:19;14.35;;;9.27;;
21681;SDS011;11002;48.256;10.084;2023-10-19T02:16:47;14.50;;;9.10;;
21681;SDS011;11002;48.256;10.084;2023-10-19T02:19:18;14.73;;;9.38;;
21681;SDS011;11002;48.256;10.084;2023-10-19T02:21:47;14.13;;;8.88;;
21681;SDS011;11002;48.256;10.084;2023-10-19T02:24:14;17.70;;;10.38;;
21681;SDS011;11002;48.256;10.084;2023-10-19T02:26:41;15.85;;;9.65;;
21681;SDS011;11002;48.256;10.084;2023-10-19T02:29:09;14.20;;;9.38;;
21681;SDS011;11002;48.256;10.084;2023-10-19T02:31:37;13.82;;;9.57;;
21681;SDS011;11002;48.256;10.084;2023-10-19T02:34:06;15.23;;;10.02;;
21681;SDS011;11002;48.256;10.084;2023-10-19T02:36:34;16.05;;;9.50;;
21681;SDS011;11002;48.256;10.084;2023-10-19T02:39:04;13.68;;;9.23;;
21681;SDS011;11002;48.256;10.084;2023-10-19T02:41:33;14.45;;;9.18;;
21681;SDS011;11002;48.256;10.084;2023-10-19T02:44:02;14.88;;;9.38;;
21681;SDS011;11002;48.256;10.084;2023-10-19T02:46:33;14.43;;;9.15;;
21681;SDS011;11002;48.256;10.084;2023-10-19T02:49:05;13.50;;;8.55;;
21681;SDS011;11002;48.256;10.084;2023-10-19T02:51:36;12.63;;;9.15;;
21681;SDS011;11002;48.256;10.084;2023-10-19T02:54:04;14.57;;;9.60;;
21681;SDS011;11002;48.256;10.084;2023-10-19T02:56:31;16.58;;;9.93;;
21681;SDS011;11002;48.256;10.084;2023-10-19T02:59:01;17.75;;;10.07;;
21681;SDS011;11002;48.256;10.084;2023-10-19T03:01:29;14.82;;;8.93;;
21681;SDS011;11002;48.256;10.084;2023-10-19T03:03:59;15.00;;;9.48;;
21681;SDS011;11002;48.256;10.084;2023-10-19T03:06:27;14.95;;;9.45;;
21681;SDS011;11002;48.256;10.084;2023-10-19T03:08:58;12.88;;;8.05;;
21681;SDS011;11002;48.256;10.084;2023-10-19T03:11:28;12.98;;;8.95;;
21681;SDS011;11002;48.256;10.084;2023-10-19T03:13:55;11.75;;;8.15;;
21681;SDS011;11002;48.256;10.084;2023-10-19T03:16:22;16.67;;;9.35;;
21681;SDS011;11002;48.256;10.084;2023-10-19T03:18:55;11.93;;;8.65;;
21681;SDS011;11002;48.256;10.084;2023-10-19T03:21:21;13.95;;;8.48;;
21681;SDS011;11002;48.256;10.084;2023-10-19T03:23:53;15.35;;;8.65;;
21681;SDS011;11002;48.256;10.084;2023-10-19T03:26:22;13.95;;;8.13;;
21681;SDS011;11002;48.256;10.084;2023-10-19T03:28:53;11.65;;;7.95;;
21681;SDS011;11002;48.256;10.084;2023-10-19T03:31:27;13.23;;;7.97;;
21681;SDS011;11002;48.256;10.084;2023-10-19T03:33:54;14.45;;;8.57;;
21681;SDS011;11002;48.256;10.084;2023-10-19T03:36:25;12.00;;;8.70;;
21681;SDS011;11002;48.256;10.084;2023-10-19T03:38:55;10.82;;;7.75;;
21681;SDS011;11002;48.256;10.084;2023-10-19T03:41:25;11.23;;;8.18;;
21681;SDS011;11002;48.256;10.084;2023-10-19T03:43:54;12.57;;;8.73;;
21681;SDS011;11002;48.256;10.084;2023-10-19T03:46:23;13.88;;;7.95;;
21681;SDS011;11002;48.256;10.084;2023-10-19T03:48:55;12.23;;;8.13;;
21681;SDS011;11002;48.256;10.084;2023-10-19T03:51:29;11.05;;;8.05;;
21681;SDS011;11002;48.256;10.084;2023-10-19T03:54:06;10.93;;;8.10;;
21681;SDS011;11002;48.256;10.084;2023-10-19T03:56:48;14.88;;;9.50;;
21681;SDS011;11002;48.256;10.084;2023-10-19T03:59:15;14.52;;;8.77;;
21681;SDS011;11002;48.256;10.084;2023-10-19T04:01:43;10.95;;;7.90;;
21681;SDS011;11002;48.256;10.084;2023-10-19T04:04:10;15.38;;;8.88;;
21681;SDS011;11002;48.256;10.084;2023-10-19T04:06:39;16.77;;;8.82;;
21681;SDS011;11002;48.256;10.084;2023-10-19T04:09:09;15.05;;;10.82;;
21681;SDS011;11002;48.256;10.084;2023-10-19T04:11:40;16.45;;;10.10;;
21681;SDS011;11002;48.256;10.084;2023-10-19T04:14:14;17.15;;;10.32;;
21681;SDS011;11002;48.256;10.084;2023-10-19T04:16:42;14.90;;;9.68;;
21681;SDS011;11002;48.256;10.084;2023-10-19T04:19:10;14.07;;;9.18;;
21681;SDS011;11002;48.256;10.084;2023-10-19T04:21:37;16.77;;;10.48;;
21681;SDS011;11002;48.256;10.084;2023-10-19T04:24:05;13.02;;;9.50;;
21681;SDS011;11002;48.256;10.084;2023-10-19T04:26:34;14.05;;;8.95;;
21681;SDS011;11002;48.256;10.084;2023-10-19T04:29:03;14.48;;;9.52;;
21681;SDS011;11002;48.256;10.084;2023-10-19T04:31:35;14.15;;;9.52;;
21681;SDS011;11002;48.256;10.084;2023-10-19T04:34:06;15.48;;;10.40;;
21681;SDS011;11002;48.256;10.084;2023-10-19T04:36:33;16.40;;;8.90;;
21681;SDS011;11002;48.256;10.084;2023-10-19T04:39:01;14.48;;;9.52;;
21681;SDS011;11002;48.256;10.084;2023-10-19T04:41:28;15.45;;;10.27;;
21681;SDS011;11002;48.256;10.084;2023-10-19T04:43:57;14.07;;;9.77;;
21681;SDS011;11002;48.256;10.084;2023-10-19T04:46:26;17.92;;;9.68;;
21681;SDS011;11002;48.256;10.084;2023-10-19T04:48:54;13.50;;;9.40;;
21681;SDS011;11002;48.256;10.084;2023-10-19T04:51:21;15.82;;;10.07;;
21681;SDS011;11002;48.256;10.084;2023-10-19T04:53:49;13.35;;;9.25;;
21681;SDS011;11002;48.256;10.084;2023-10-19T04:56:16;12.68;;;9.43;;
21681;SDS011;11002;48.256;10.084;2023-10-19T04:58:44;15.07;;;9.13;;
21681;SDS011;11002;48.256;10.084;2023-10-19T05:01:13;13.30;;;9.10;;
21681;SDS011;11002;48.256;10.084;2023-10-19T05:03:41;15.52;;;10.13;;
21681;SDS011;11002;48.256;10.084;2023-10-19T05:06:09;15.25;;;8.93;;
21681;SDS011;11002;48.256;10.084;2023-10-19T05:08:37;12.05;;;8.25;;
21681;SDS011;11002;48.256;10.084;2023-10-19T05:11:05;15.75;;;9.60;;
21681;SDS011;11002;48.256;10.084;2023-10-19T05:13:32;12.95;;;8.93;;
21681;SDS011;11002;48.256;10.084;2023-10-19T05:16:00;12.43;;;8.57;;
21681;SDS011;11002;48.256;10.084;2023-10-19T05:18:29;15.07;;;9.35;;
21681;SDS011;11002;48.256;10.084;2023-10-19T05:20:56;16.65;;;8.73;;
21681;SDS011;11002;48.256;10.084;2023-10-19T05:23:24;13.93;;;10.13;;
21681;SDS011;11002;48.256;10.084;2023-10-19T05:25:53;14.75;;;9.68;;
21681;SDS011;11002;48.256;10.084;2023-10-19T05:28:27;15.23;;;10.98;;
21681;SDS011;11002;48.256;10.084;2023-10-19T05:30:55;15.77;;;11.63;;
21681;SDS011;11002;48.256;10.084;2023-10-19T05:33:22;15.20;;;9.77;;
21681;SDS011;11002;48.256;10.084;2023-10-19T05:35:51;15.13;;;9.55;;
21681;SDS011;11002;48.256;10.084;2023-10-19T05:38:18;12.20;;;8.75;;
21681;SDS011;11002;48.256;10.084;2023-10-19T05:40:47;10.82;;;7.63;;
21681;SDS011;11002;48.256;10.084;2023-10-19T05:43:15;13.93;;;8.75;;
21681;SDS011;11002;48.256;10.084;2023-10-19T05:45:42;11.65;;;7.82;;
21681;SDS011;11002;48.256;10.084;2023-10-19T05:48:10;12.43;;;8.73;;
21681;SDS011;11002;48.256;10.084;2023-10-19T05:50:38;13.70;;;8.82;;
21681;SDS011;11002;48.256;10.084;2023-10-19T05:53:06;15.75;;;10.38;;
21681;SDS011;11002;48.256;10.084;2023-10-19T05:55:33;13.65;;;10.25;;
21681;SDS011;11002;48.256;10.084;2023-10-19T05:58:01;14.25;;;10.02;;
21681;SDS011;11002;48.256;10.084;2023-10-19T06:00:30;15.73;;;10.45;;
21681;SDS011;11002;48.256;10.084;2023-10-19T06:02:57;14.65;;;9.98;;
21681;SDS011;11002;48.256;10.084;2023-10-19T06:05:25;12.88;;;9.57;;
21681;SDS011;11002;48.256;10.084;2023-10-19T06:07:52;14.20;;;9.65;;
21681;SDS011;11002;48.256;10.084;2023-10-19T06:10:21;16.00;;;10.18;;
21681;SDS011;11002;48.256;10.084;2023-10-19T06:12:49;28.38;;;16.10;;
21681;SDS011;11002;48.256;10.084;2023-10-19T06:15:18;23.27;;;11.70;;
21681;SDS011;11002;48.256;10.084;2023-10-19T06:17:47;22.33;;;10.40;;
21681;SDS011;11002;48.256;10.084;2023-10-19T06:20:15;20.63;;;10.70;;
21681;SDS011;11002;48.256;10.084;2023-10-19T06:22:52;12.02;;;9.05;;
21681;SDS011;11002;48.256;10.084;2023-10-19T06:25:23;9.40;;;7.00;;
21681;SDS011;11002;48.256;10.084;2023-10-19T06:27:51;9.85;;;7.45;;
21681;SDS011;11002;48.256;10.084;2023-10-19T06:30:22;12.10;;;7.80;;
21681;SDS011;11002;48.256;10.084;2023-10-19T06:32:51;10.35;;;7.43;;
21681;SDS011;11002;48.256;10.084;2023-10-19T06:35:20;16.95;;;9.90;;
21681;SDS011;11002;48.256;10.084;2023-10-19T06:37:48;11.20;;;7.85;;
21681;SDS011;11002;48.256;10.084;2023-10-19T06:40:16;12.40;;;7.80;;
21681;SDS011;11002;48.256;10.084;2023-10-19T06:42:45;14.52;;;9.13;;
21681;SDS011;11002;48.256;10.084;2023-10-19T06:45:13;14.90;;;10.18;;
21681;SDS011;11002;48.256;10.084;2023-10-19T06:47:41;14.60;;;9.05;;
21681;SDS011;11002;48.256;10.084;2023-10-19T06:50:10;11.75;;;8.00;;
21681;SDS011;11002;48.256;10.084;2023-10-19T06:52:38;14.02;;;8.38;;
21681;SDS011;11002;48.256;10.084;2023-10-19T06:55:06;10.20;;;7.47;;
21681;SDS011;11002;48.256;10.084;2023-10-19T06:57:39;14.10;;;7.60;;
21681;SDS011;11002;48.256;10.084;2023-10-19T07:00:10;11.98;;;8.05;;
21681;SDS011;11002;48.256;10.084;2023-10-19T07:02:41;11.13;;;7.47;;
21681;SDS011;11002;48.256;10.084;2023-10-19T07:05:09;10.90;;;7.35;;
21681;SDS011;11002;48.256;10.084;2023-10-19T07:07:38;11.23;;;7.50;;
21681;SDS011;11002;48.256;10.084;2023-10-19T07:10:07;9.93;;;7.28;;
21681;SDS011;11002;48.256;10.084;2023-10-19T07:12:35;9.98;;;7.05;;
21681;SDS011;11002;48.256;10.084;2023-10-19T07:15:03;11.05;;;7.20;;
21681;SDS011;11002;48.256;10.084;2023-10-19T07:17:34;10.05;;;7.32;;
21681;SDS011;11002;48.256;10.084;2023-10-19T07:20:03;10.10;;;6.55;;
21681;SDS011;11002;48.256;10.084;2023-10-19T07:22:32;12.55;;;7.05;;
21681;SDS011;11002;48.256;10.084;2023-10-19T07:25:03;10.52;;;7.20;;
21681;SDS011;11002;48.256;10.084;2023-10-19T07:27:31;10.55;;;7.85;;
21681;SDS011;11002;48.256;10.084;2023-10-19T07:29:59;10.25;;;6.97;;
21681;SDS011;11002;48.256;10.084;2023-10-19T07:32:26;10.73;;;7.60;;
21681;SDS011;11002;48.256;10.084;2023-10-19T07:34:56;9.60;;;6.88;;
21681;SDS011;11002;48.256;10.084;2023-10-19T07:37:24;10.48;;;7.25;;
21681;SDS011;11002;48.256;10.084;2023-10-19T07:39:52;8.85;;;6.47;;
21681;SDS011;11002;48.256;10.084;2023-10-19T07:42:22;11.75;;;7.15;;
21681;SDS011;11002;48.256;10.084;2023-10-19T07:44:49;11.10;;;7.65;;
21681;SDS011;11002;48.256;10.084;2023-10-19T07:47:17;11.25;;;7.20;;
21681;SDS011;11002;48.256;10.084;2023-10-19T07:49:44;10.57;;;7.07;;
21681;SDS011;11002;48.256;10.084;2023-10-19T07:52:14;9.70;;;6.60;;
21681;SDS011;11002;48.256;10.084;2023-10-19T07:54:42;9.70;;;7.05;;
21681;SDS011;11002;48.256;10.084;2023-10-19T07:57:10;11.45;;;7.05;;
21681;SDS011;11002;48.256;10.084;2023-10-19T07:59:38;9.93;;;7.07;;
21681;SDS011;11002;48.256;10.084;2023-10-19T08:02:05;9.48;;;6.50;;
21681;SDS011;11002;48.256;10.084;2023-10-19T08:04:33;8.93;;;7.00;;
21681;SDS011;11002;48.256;10.084;2023-10-19T08:07:01;9.52;;;6.93;;
21681;SDS011;11002;48.256;10.084;2023-10-19T08:09:31;12.90;;;7.25;;
21681;SDS011;11002;48.256;10.084;2023-10-19T08:12:00;10.70;;;6.72;;
21681;SDS011;11002;48.256;10.084;2023-10-19T08:14:31;11.00;;;7.05;;
21681;SDS011;11002;48.256;10.084;2023-10-19T08:16:58;10.85;;;7.45;;
21681;SDS011;11002;48.256;10.084;2023-10-19T08:19:27;15.15;;;8.40;;
21681;SDS011;11002;48.256;10.084;2023-10-19T08:21:56;9.32;;;7.22;;
21681;SDS011;11002;48.256;10.084;2023-10-19T08:24:24;10.68;;;6.72;;
21681;SDS011;11002;48.256;10.084;2023-10-19T08:26:55;13.23;;;7.70;;
21681;SDS011;11002;48.256;10.084;2023-10-19T08:29:23;11.55;;;7.32;;
21681;SDS011;11002;48.256;10.084;2023-10-19T08:31:50;13.32;;;7.97;;
21681;SDS011;11002;48.256;10.084;2023-10-19T08:34:17;11.98;;;7.47;;
21681;SDS011;11002;48.256;10.084;2023-10-19T08:36:45;11.63;;;7.85;;
21681;SDS011;11002;48.256;10.084;2023-10-19T08:39:14;10.95;;;7.57;;
21681;SDS011;11002;48.256;10.084;2023-10-19T08:41:43;12.65;;;8.57;;
21681;SDS011;11002;48.256;10.084;2023-10-19T08:44:14;10.45;;;7.53;;
21681;SDS011;11002;48.256;10.084;2023-10-19T08:46:43;13.00;;;7.78;;
21681;SDS011;11002;48.256;10.084;2023-10-19T08:49:11;14.77;;;8.95;;
21681;SDS011;11002;48.256;10.084;2023-10-19T08:51:39;13.27;;;8.02;;
21681;SDS011;11002;48.256;10.084;2023-10-19T08:54:11;11.35;;;8.15;;
21681;SDS011;11002;48.256;10.084;2023-10-19T08:56:39;12.15;;;8.13;;
21681;SDS011;11002;48.256;10.084;2023-10-19T08:59:07;11.40;;;7.53;;
21681;SDS011;11002;48.256;10.084;2023-10-19T09:01:37;10.65;;;6.97;;
21681;SDS011;11002;48.256;10.084;2023-10-19T09:04:05;9.52;;;6.88;;
21681;SDS011;11002;48.256;10.084;2023-10-19T09:06:34;13.98;;;7.95;;
21681;SDS011;11002;48.256;10.084;2023-10-19T09:09:07;10.73;;;7.00;;
21681;SDS011;11002;48.256;10.084;2023-10-19T09:11:39;11.13;;;7.40;;
21681;SDS011;11002;48.256;10.084;2023-10-19T09:14:07;10.35;;;6.97;;
21681;SDS011;11002;48.256;10.084;2023-10-19T09:16:39;11.73;;;6.40;;
21681;SDS011;11002;48.256;10.084;2023-10-19T09:19:25;11.07;;;7.38;;
21681;SDS011;11002;48.256;10.084;2023-10-19T09:22:06;7.90;;;6.22;;
21681;SDS011;11002;48.256;10.084;2023-10-19T09:24:44;10.32;;;6.68;;
21681;SDS011;11002;48.256;10.084;2023-10-19T09:27:11;9.85;;;7.00;;
21681;SDS011;11002;48.256;10.084;2023-10-19T09:29:39;10.38;;;6.55;;
21681;SDS011;11002;48.256;10.084;2023-10-19T09:32:08;12.00;;;7.03;;
21681;SDS011;11002;48.256;10.084;2023-10-19T09:34:38;10.20;;;6.65;;
21681;SDS011;11002;48.256;10.084;2023-10-19T09:37:09;9.20;;;6.55;;
21681;SDS011;11002;48.256;10.084;2023-10-19T09:39:37;8.95;;;6.28;;
21681;SDS011;11002;48.256;10.084;2023-10-19T09:42:05;9.52;;;6.40;;
21681;SDS011;11002;48.256;10.084;2023-10-19T09:44:39;11.13;;;7.20;;
21681;SDS011;11002;48.256;10.084;2023-10-19T09:47:13;11.18;;;7.28;;
21681;SDS011;11002;48.256;10.084;2023-10-19T09:49:44;12.88;;;7.22;;
21681;SDS011;11002;48.256;10.084;2023-10-19T09:52:15;13.93;;;7.28;;
21681;SDS011;11002;48.256;10.084;2023-10-19T09:54:49;9.80;;;7.03;;
21681;SDS011;11002;48.256;10.084;2023-10-19T09:57:22;10.50;;;6.63;;
21681;SDS011;11002;48.256;10.084;2023-10-19T09:59:59;10.40;;;7.35;;
21681;SDS011;11002;48.256;10.084;2023-10-19T10:02:42;10.85;;;7.25;;
21681;SDS011;11002;48.256;10.084;2023-10-19T10:08:32;10.80;;;7.35;;
21681;SDS011;11002;48.256;10.084;2023-10-19T10:11:12;12.05;;;7.28;;
21681;SDS011;11002;48.256;10.084;2023-10-19T10:13:43;10.35;;;6.72;;
21681;SDS011;11002;48.256;10.084;2023-10-19T10:16:14;11.88;;;7.25;;
21681;SDS011;11002;48.256;10.084;2023-10-19T10:18:44;11.95;;;7.78;;
21681;SDS011;11002;48.256;10.084;2023-10-19T10:21:16;14.27;;;7.75;;
21681;SDS011;11002;48.256;10.084;2023-10-19T10:23:49;9.70;;;6.95;;
21681;SDS011;11002;48.256;10.084;2023-10-19T10:26:19;15.90;;;8.43;;
21681;SDS011;11002;48.256;10.084;2023-10-19T10:31:43;13.88;;;8.38;;
21681;SDS011;11002;48.256;10.084;2023-10-19T10:34:16;12.57;;;7.95;;
21681;SDS011;11002;48.256;10.084;2023-10-19T10:37:09;14.02;;;8.48;;
21681;SDS011;11002;48.256;10.084;2023-10-19T10:39:38;13.35;;;8.95;;
21681;SDS011;11002;48.256;10.084;2023-10-19T10:42:10;14.50;;;7.80;;
21681;SDS011;11002;48.256;10.084;2023-10-19T10:44:37;12.98;;;8.10;;
21681;SDS011;11002;48.256;10.084;2023-10-19T10:47:06;11.38;;;8.07;;
21681;SDS011;11002;48.256;10.084;2023-10-19T10:49:49;14.43;;;8.25;;
21681;SDS011;11002;48.256;10.084;2023-10-19T10:52:27;14.65;;;8.38;;
21681;SDS011;11002;48.256;10.084;2023-10-19T10:54:57;11.05;;;8.35;;
21681;SDS011;11002;48.256;10.084;2023-10-19T10:57:30;12.13;;;8.35;;
21681;SDS011;11002;48.256;10.084;2023-10-19T11:00:02;13.35;;;8.02;;
21681;SDS011;11002;48.256;10.084;2023-10-19T11:02:33;12.30;;;7.67;;
21681;SDS011;11002;48.256;10.084;2023-10-19T11:05:02;12.05;;;7.45;;
21681;SDS011;11002;48.256;10.084;2023-10-19T11:07:30;10.27;;;6.32;;
21681;SDS011;11002;48.256;10.084;2023-10-19T11:09:57;13.40;;;8.23;;
21681;SDS011;11002;48.256;10.084;2023-10-19T11:12:25;11.25;;;7.03;;
21681;SDS011;11002;48.256;10.084;2023-10-19T11:14:52;8.27;;;6.47;;
21681;SDS011;11002;48.256;10.084;2023-10-19T11:17:20;9.75;;;5.97;;
21681;SDS011;11002;48.256;10.084;2023-10-19T11:19:54;9.40;;;6.50;;
21681;SDS011;11002;48.256;10.084;2023-10-19T11:22:24;7.25;;;5.85;;
21681;SDS011;11002;48.256;10.084;2023-10-19T11:24:51;9.55;;;6.38;;
21681;SDS011;11002;48.256;10.084;2023-10-19T11:27:23;10.23;;;6.13;;
21681;SDS011;11002;48.256;10.084;2023-10-19T11:29:54;9.80;;;6.00;;
21681;SDS011;11002;48.256;10.084;2023-10-19T11:32:22;8.43;;;5.97;;
21681;SDS011;11002;48.256;10.084;2023-10-19T11:34:50;11.30;;;6.00;;
21681;SDS011;11002;48.256;10.084;2023-10-19T11:37:18;10.75;;;7.03;;
21681;SDS011;11002;48.256;10.084;2023-10-19T11:39:47;8.52;;;6.18;;
21681;SDS011;11002;48.256;10.084;2023-10-19T11:42:15;8.73;;;6.13;;
21681;SDS011;11002;48.256;10.084;2023-10-19T11:44:43;9.18;;;6.22;;
21681;SDS011;11002;48.256;10.084;2023-10-19T11:47:11;11.00;;;6.65;;
21681;SDS011;11002;48.256;10.084;2023-10-19T11:49:40;10.38;;;6.55;;
21681;SDS011;11002;48.256;10.084;2023-10-19T11:52:07;8.50;;;6.07;;
21681;SDS011;11002;48.256;10.084;2023-10-19T11:54:35;8.23;;;5.30;;
21681;SDS011;11002;48.256;10.084;2023-10-19T11:57:03;9.93;;;7.22;;
21681;SDS011;11002;48.256;10.084;2023-10-19T11:59:31;7.45;;;5.80;;
21681;SDS011;11002;48.256;10.084;2023-10-19T12:01:58;11.65;;;5.80;;
21681;SDS011;11002;48.256;10.084;2023-10-19T12:04:29;7.50;;;5.50;;
21681;SDS011;11002;48.256;10.084;2023-10-19T12:06:57;6.25;;;4.88;;
21681;SDS011;11002;48.256;10.084;2023-10-19T12:09:26;5.75;;;4.68;;
21681;SDS011;11002;48.256;10.084;2023-10-19T12:11:53;8.77;;;5.30;;
21681;SDS011;11002;48.256;10.084;2023-10-19T12:14:22;6.97;;;5.22;;
21681;SDS011;11002;48.256;10.084;2023-10-19T12:16:49;7.75;;;4.90;;
21681;SDS011;11002;48.256;10.084;2023-10-19T12:19:17;4.82;;;3.72;;
21681;SDS011;11002;48.256;10.084;2023-10-19T12:21:44;6.75;;;4.30;;
21681;SDS011;11002;48.256;10.084;2023-10-19T12:24:12;5.00;;;3.78;;
21681;SDS011;11002;48.256;10.084;2023-10-19T12:26:40;5.07;;;3.92;;
21681;SDS011;11002;48.256;10.084;2023-10-19T12:29:08;4.50;;;3.47;;
21681;SDS011;11002;48.256;10.084;2023-10-19T12:31:38;5.32;;;3.42;;
21681;SDS011;11002;48.256;10.084;2023-10-19T12:34:05;5.07;;;4.03;;
21681;SDS011;11002;48.256;10.084;2023-10-19T12:36:33;4.50;;;3.65;;
21681;SDS011;11002;48.256;10.084;2023-10-19T12:39:01;3.10;;;2.67;;
21681;SDS011;11002;48.256;10.084;2023-10-19T12:41:31;4.82;;;2.92;;
21681;SDS011;11002;48.256;10.084;2023-10-19T12:43:58;4.70;;;2.85;;
21681;SDS011;11002;48.256;10.084;2023-10-19T12:46:28;7.18;;;2.78;;
21681;SDS011;11002;48.256;10.084;2023-10-19T12:48:57;4.82;;;3.15;;
21681;SDS011;11002;48.256;10.084;2023-10-19T12:51:25;3.70;;;2.30;;
21681;SDS011;11002;48.256;10.084;2023-10-19T12:53:52;3.92;;;2.60;;
21681;SDS011;11002;48.256;10.084;2023-10-19T12:56:21;2.53;;;2.28;;
21681;SDS011;11002;48.256;10.084;2023-10-19T12:58:50;4.60;;;3.40;;
21681;SDS011;11002;48.256;10.084;2023-10-19T13:01:17;5.43;;;3.40;;
21681;SDS011;11002;48.256;10.084;2023-10-19T13:03:45;4.25;;;3.38;;
21681;SDS011;11002;48.256;10.084;2023-10-19T13:06:16;3.47;;;2.97;;
21681;SDS011;11002;48.256;10.084;2023-10-19T13:08:44;3.42;;;3.10;;
21681;SDS011;11002;48.256;10.084;2023-10-19T13:11:12;3.45;;;2.63;;
21681;SDS011;11002;48.256;10.084;2023-10-19T13:13:40;3.92;;;2.78;;
21681;SDS011;11002;48.256;10.084;2023-10-19T13:16:07;4.13;;;2.90;;
21681;SDS011;11002;48.256;10.084;2023-10-19T13:18:35;4.25;;;2.65;;
21681;SDS011;11002;48.256;10.084;2023-10-19T13:21:05;3.85;;;3.00;;
21681;SDS011;11002;48.256;10.084;2023-10-19T13:23:38;3.38;;;2.92;;
21681;SDS011;11002;48.256;10.084;2023-10-19T13:26:06;5.00;;;3.28;;
21681;SDS011;11002;48.256;10.084;2023-10-19T13:28:42;6.15;;;3.78;;
21681;SDS011;11002;48.256;10.084;2023-10-19T13:31:10;6.07;;;3.60;;
21681;SDS011;11002;48.256;10.084;2023-10-19T13:33:39;6.05;;;3.50;;
21681;SDS011;11002;48.256;10.084;2023-10-19T13:36:09;3.95;;;3.00;;
21681;SDS011;11002;48.256;10.084;2023-10-19T13:38:39;6.82;;;4.30;;
21681;SDS011;11002;48.256;10.084;2023-10-19T13:41:07;5.90;;;4.00;;
21681;SDS011;11002;48.256;10.084;2023-10-19T13:43:36;5.18;;;3.97;;
21681;SDS011;11002;48.256;10.084;2023-10-19T13:46:07;5.90;;;4.30;;
21681;SDS011;11002;48.256;10.084;2023-10-19T13:48:34;5.57;;;4.13;;
21681;SDS011;11002;48.256;10.084;2023-10-19T13:51:04;7.95;;;4.22;;
21681;SDS011;11002;48.256;10.084;2023-10-19T13:53:38;5.47;;;3.50;;
21681;SDS011;11002;48.256;10.084;2023-10-19T13:56:07;3.92;;;3.40;;
21681;SDS011;11002;48.256;10.084;2023-10-19T13:58:35;4.75;;;3.60;;
21681;SDS011;11002;48.256;10.084;2023-10-19T14:01:06;4.68;;;3.72;;
21681;SDS011;11002;48.256;10.084;2023-10-19T14:03:35;4.95;;;4.22;;
21681;SDS011;11002;48.256;10.084;2023-10-19T14:06:03;6.22;;;3.65;;
21681;SDS011;11002;48.256;10.084;2023-10-19T14:08:30;4.85;;;3.83;;
21681;SDS011;11002;48.256;10.084;2023-10-19T14:11:02;4.57;;;3.80;;
21681;SDS011;11002;48.256;10.084;2023-10-19T14:13:30;6.20;;;4.65;;
21681;SDS011;11002;48.256;10.084;2023-10-19T14:15:57;7.53;;;4.25;;
21681;SDS011;11002;48.256;10.084;2023-10-19T14:18:25;6.15;;;4.20;;
21681;SDS011;11002;48.256;10.084;2023-10-19T14:20:52;6.38;;;5.00;;
21681;SDS011;11002;48.256;10.084;2023-10-19T14:23:20;6.03;;;4.43;;
21681;SDS011;11002;48.256;10.084;2023-10-19T14:25:49;6.18;;;4.43;;
21681;SDS011;11002;48.256;10.084;2023-10-19T14:28:18;5.13;;;3.88;;
21681;SDS011;11002;48.256;10.084;2023-10-19T14:30:45;4.32;;;3.78;;
21681;SDS011;11002;48.256;10.084;2023-10-19T14:33:12;4.70;;;3.85;;
21681;SDS011;11002;48.256;10.084;2023-10-19T14:35:40;4.85;;;4.00;;
21681;SDS011;11002;48.256;10.084;2023-10-19T14:38:08;4.72;;;4.03;;
21681;SDS011;11002;48.256;10.084;2023-10-19T14:40:38;4.85;;;3.47;;
21681;SDS011;11002;48.256;10.084;2023-10-19T14:43:09;5.93;;;3.75;;